createdAt,value
2019-03-25T00:00:06.600Z,9.00
2019-03-25T00:02:35.898Z,9.10
2019-03-25T00:05:06.507Z,9.00
2019-03-25T00:07:35.784Z,9.00
2019-03-25T00:10:06.333Z,8.90
2019-03-25T00:12:35.602Z,9.00
2019-03-25T00:15:06.918Z,8.90
2019-03-25T00:17:36.156Z,8.90
2019-03-25T00:20:06.316Z,8.80
2019-03-25T00:22:35.530Z,8.90
2019-03-25T00:25:06.050Z,8.90
2019-03-25T00:27:35.376Z,8.90
2019-03-25T00:30:05.096Z,8.90
2019-03-25T00:32:34.345Z,8.90
2019-03-25T00:35:03.425Z,8.90
2019-03-25T00:37:32.612Z,8.90
2019-03-25T00:40:01.775Z,9.00
2019-03-25T00:42:30.860Z,9.00
2019-03-25T00:45:00.030Z,9.00
2019-03-25T00:47:29.261Z,9.00
2019-03-25T00:49:58.401Z,9.10
2019-03-25T00:52:27.608Z,9.00
2019-03-25T00:54:56.893Z,9.10
2019-03-25T00:57:26.112Z,9.00
2019-03-25T00:59:55.540Z,9.10
2019-03-25T01:02:24.776Z,9.00
2019-03-25T01:04:54.238Z,9.10
2019-03-25T01:07:23.625Z,8.90
2019-03-25T01:09:52.863Z,8.90
2019-03-25T01:12:22.005Z,9.00
2019-03-25T01:14:51.310Z,8.90
2019-03-25T01:17:20.585Z,8.90
2019-03-25T01:19:49.865Z,8.90
2019-03-25T01:22:19.136Z,8.80
2019-03-25T01:24:48.500Z,8.90
2019-03-25T01:27:17.670Z,8.90
2019-03-25T01:29:46.823Z,8.80
2019-03-25T01:32:15.905Z,8.00
2019-03-25T01:34:45.120Z,8.80
2019-03-25T01:37:14.419Z,8.80
2019-03-25T01:39:43.700Z,8.80
2019-03-25T01:42:13.060Z,8.80
2019-03-25T01:44:42.273Z,8.80
2019-03-25T01:47:11.677Z,8.80
2019-03-25T01:49:40.955Z,8.90
2019-03-25T01:52:10.226Z,8.80
2019-03-25T01:54:39.246Z,8.90
2019-03-25T01:57:08.484Z,8.80
2019-03-25T01:59:37.956Z,8.90
2019-03-25T02:02:07.168Z,8.90
2019-03-25T02:04:36.424Z,8.80
2019-03-25T02:07:05.733Z,8.90
2019-03-25T02:09:35.019Z,8.90
2019-03-25T02:12:04.197Z,8.90
2019-03-25T02:14:33.424Z,9.00
2019-03-25T02:17:02.738Z,9.00
2019-03-25T02:19:32.083Z,8.90
2019-03-25T02:22:01.062Z,9.00
2019-03-25T02:24:30.348Z,9.00
2019-03-25T02:26:59.849Z,9.10
2019-03-25T02:29:28.998Z,9.10
2019-03-25T02:31:58.348Z,9.10
2019-03-25T02:34:27.501Z,9.10
2019-03-25T02:36:56.562Z,9.10
2019-03-25T02:39:25.883Z,9.10
2019-03-25T02:41:55.256Z,9.20
2019-03-25T02:44:24.529Z,9.20
2019-03-25T02:46:53.744Z,9.20
2019-03-25T02:49:22.888Z,9.20
2019-03-25T02:51:52.271Z,9.30
2019-03-25T02:54:21.580Z,9.20
2019-03-25T02:56:50.918Z,9.30
2019-03-25T02:59:20.475Z,9.30
2019-03-25T03:01:49.754Z,9.30
2019-03-25T03:04:19.103Z,9.40
2019-03-25T03:06:48.421Z,9.30
2019-03-25T03:09:17.717Z,9.30
2019-03-25T03:11:46.908Z,9.40
2019-03-25T03:14:16.135Z,9.40
2019-03-25T03:16:45.624Z,9.30
2019-03-25T03:19:14.834Z,9.30
2019-03-25T03:21:44.167Z,9.30
2019-03-25T03:24:13.473Z,9.30
2019-03-25T03:26:42.701Z,9.40
2019-03-25T03:29:12.053Z,9.40
2019-03-25T03:31:41.165Z,9.40
2019-03-25T03:34:10.438Z,9.50
2019-03-25T03:36:39.793Z,9.50
2019-03-25T03:39:09.017Z,9.50
2019-03-25T03:41:38.393Z,9.50
2019-03-25T03:44:07.585Z,9.60
2019-03-25T03:46:36.839Z,9.60
2019-03-25T03:49:06.140Z,9.60
2019-03-25T03:51:35.375Z,9.50
2019-03-25T03:54:04.622Z,9.50
2019-03-25T03:56:33.788Z,9.50
2019-03-25T03:59:03.040Z,9.40
2019-03-25T04:01:32.168Z,9.50
2019-03-25T04:04:01.379Z,9.40
2019-03-25T04:06:30.687Z,9.30
2019-03-25T04:08:59.858Z,9.30
2019-03-25T04:11:29.047Z,9.30
2019-03-25T04:13:58.359Z,9.30
2019-03-25T04:16:27.675Z,9.30
2019-03-25T04:18:56.926Z,9.30
2019-03-25T04:21:26.208Z,9.30
2019-03-25T04:23:55.509Z,9.30
2019-03-25T04:26:28.869Z,9.40
2019-03-25T04:28:55.609Z,9.50
2019-03-25T04:31:24.753Z,9.40
2019-03-25T04:33:53.946Z,9.50
2019-03-25T04:36:22.980Z,9.60
2019-03-25T04:38:52.353Z,9.60
2019-03-25T04:41:21.578Z,10.90
2019-03-25T04:43:50.780Z,9.60
2019-03-25T04:46:19.963Z,9.60
2019-03-25T04:48:49.774Z,9.50
2019-03-25T04:51:19.193Z,9.50
2019-03-25T04:53:48.373Z,9.60
2019-03-25T04:56:17.500Z,9.50
2019-03-25T04:58:46.745Z,9.50
2019-03-25T05:01:15.937Z,9.50
2019-03-25T05:03:45.157Z,9.50
2019-03-25T05:06:14.396Z,9.50
2019-03-25T05:08:43.658Z,9.50
2019-03-25T05:11:12.885Z,9.50
2019-03-25T05:13:41.911Z,9.50
2019-03-25T05:16:10.981Z,9.50
2019-03-25T05:18:40.111Z,9.50
2019-03-25T05:21:09.332Z,9.60
2019-03-25T05:23:38.606Z,9.50
2019-03-25T05:26:07.865Z,9.50
2019-03-25T05:28:37.093Z,9.50
2019-03-25T05:31:06.296Z,9.40
2019-03-25T05:33:35.647Z,9.50
2019-03-25T05:36:04.906Z,9.40
2019-03-25T05:38:34.366Z,9.40
2019-03-25T05:41:03.624Z,9.40
2019-03-25T05:43:33.021Z,9.40
2019-03-25T05:46:02.277Z,9.40
2019-03-25T05:48:31.609Z,9.40
2019-03-25T05:51:01.010Z,9.30
2019-03-25T05:53:30.121Z,9.40
2019-03-25T05:55:59.344Z,9.40
2019-03-25T05:58:28.594Z,9.40
2019-03-25T06:00:57.842Z,9.40
2019-03-25T06:03:27.126Z,9.40
2019-03-25T06:05:56.380Z,9.40
2019-03-25T06:08:25.636Z,9.40
2019-03-25T06:10:54.850Z,9.40
2019-03-25T06:13:24.148Z,9.40
2019-03-25T06:15:53.150Z,9.40
2019-03-25T06:18:22.629Z,9.40
2019-03-25T06:20:51.835Z,9.40
2019-03-25T06:23:20.979Z,9.40
2019-03-25T06:25:50.093Z,9.50
2019-03-25T06:28:19.289Z,9.40
2019-03-25T06:30:48.499Z,9.40
2019-03-25T06:33:17.674Z,9.30
2019-03-25T06:35:46.889Z,9.40
2019-03-25T06:38:16.160Z,9.40
2019-03-25T06:40:45.622Z,9.50
2019-03-25T06:43:15.012Z,9.40
2019-03-25T06:45:44.317Z,9.40
2019-03-25T06:48:13.532Z,9.40
2019-03-25T06:50:42.597Z,9.40
2019-03-25T06:53:11.893Z,9.40
2019-03-25T06:55:41.224Z,9.40
2019-03-25T06:58:10.309Z,9.40
2019-03-25T07:00:39.580Z,9.40
2019-03-25T07:03:08.827Z,9.40
2019-03-25T07:05:38.061Z,9.30
2019-03-25T07:08:07.522Z,9.30
2019-03-25T07:10:37.437Z,9.30
2019-03-25T07:13:06.572Z,9.30
2019-03-25T07:15:35.784Z,9.30
2019-03-25T07:18:05.018Z,9.30
2019-03-25T07:20:34.206Z,9.30
2019-03-25T07:23:03.424Z,9.30
2019-03-25T07:25:32.573Z,9.30
2019-03-25T07:28:01.725Z,9.30
2019-03-25T07:30:30.777Z,9.30
2019-03-25T07:33:00.008Z,9.30
2019-03-25T07:35:29.277Z,9.30
2019-03-25T07:37:58.572Z,9.40
2019-03-25T07:40:27.799Z,9.30
2019-03-25T07:42:57.037Z,9.40
2019-03-25T07:45:26.423Z,9.30
2019-03-25T07:47:55.650Z,9.30
2019-03-25T07:50:24.988Z,9.40
2019-03-25T07:52:54.306Z,9.30
2019-03-25T07:55:23.542Z,9.30
2019-03-25T07:57:52.781Z,9.30
2019-03-25T08:00:22.799Z,9.40
2019-03-25T08:02:52.103Z,9.30
2019-03-25T08:05:21.331Z,9.50
2019-03-25T08:07:50.444Z,9.50
2019-03-25T08:10:31.303Z,9.50
2019-03-25T08:13:00.630Z,9.70
2019-03-25T08:15:29.687Z,9.70
2019-03-25T08:17:58.763Z,9.70
2019-03-25T08:22:57.030Z,9.80
2019-03-25T08:25:26.313Z,9.80
2019-03-25T08:28:00.393Z,9.80
2019-03-25T08:30:26.100Z,9.80
2019-03-25T08:32:55.236Z,9.80
2019-03-25T08:35:24.401Z,9.80
2019-03-25T08:37:53.806Z,9.80
2019-03-25T08:40:22.872Z,9.80
2019-03-25T08:42:52.009Z,9.80
2019-03-25T08:45:21.415Z,9.60
2019-03-25T08:47:50.580Z,9.60
2019-03-25T08:50:19.707Z,9.50
2019-03-25T08:52:49.102Z,9.60
2019-03-25T08:55:18.188Z,9.50
2019-03-25T08:57:47.334Z,9.50
2019-03-25T09:00:16.709Z,9.50
2019-03-25T09:02:45.816Z,9.50
2019-03-25T09:05:15.026Z,9.50
2019-03-25T09:07:44.267Z,9.50
2019-03-25T09:10:13.528Z,9.40
2019-03-25T09:12:42.789Z,9.20
2019-03-25T09:15:12.065Z,9.30
2019-03-25T09:17:41.423Z,9.30
2019-03-25T09:20:10.796Z,9.20
2019-03-25T09:22:40.140Z,9.20
2019-03-25T09:25:09.370Z,9.20
2019-03-25T09:27:38.721Z,9.40
2019-03-25T09:30:08.560Z,9.50
2019-03-25T09:32:37.936Z,9.80
2019-03-25T09:35:08.128Z,10.00
2019-03-25T09:37:37.717Z,10.40
2019-03-25T09:40:08.071Z,10.70
2019-03-25T09:42:37.374Z,11.20
2019-03-25T09:45:09.508Z,11.80
2019-03-25T09:47:38.713Z,12.30
2019-03-25T09:50:08.568Z,12.60
2019-03-25T09:52:38.826Z,12.80
2019-03-25T09:55:08.747Z,13.00
2019-03-25T09:57:38.001Z,13.00
2019-03-25T10:00:10.103Z,13.30
2019-03-25T10:05:07.948Z,13.40
2019-03-25T10:07:37.159Z,13.50
2019-03-25T10:10:08.256Z,13.50
2019-03-25T10:12:37.484Z,13.70
2019-03-25T10:15:08.354Z,13.70
2019-03-25T10:17:37.543Z,13.60
2019-03-25T10:20:09.697Z,13.20
2019-03-25T10:22:39.025Z,12.80
2019-03-25T10:25:08.366Z,12.40
2019-03-25T10:28:31.949Z,12.10
2019-03-25T10:31:01.500Z,11.90
2019-03-25T10:33:30.921Z,12.00
2019-03-25T10:36:00.158Z,12.20
2019-03-25T10:38:29.285Z,12.70
2019-03-25T10:40:58.528Z,13.20
2019-03-25T10:43:27.761Z,13.40
2019-03-25T10:45:57.001Z,13.80
2019-03-25T10:48:26.346Z,14.00
2019-03-25T10:50:55.588Z,14.10
2019-03-25T10:53:24.924Z,14.10
2019-03-25T10:55:54.072Z,14.10
2019-03-25T10:58:23.344Z,13.70
2019-03-25T11:00:52.641Z,13.30
2019-03-25T11:03:21.770Z,12.90
2019-03-25T11:05:51.037Z,12.50
2019-03-25T11:08:20.360Z,12.40
2019-03-25T11:10:49.748Z,12.50
2019-03-25T11:13:18.945Z,12.80
2019-03-25T11:15:48.118Z,13.10
2019-03-25T11:18:17.147Z,13.50
2019-03-25T11:20:46.420Z,13.80
2019-03-25T11:23:15.597Z,14.20
2019-03-25T11:25:44.843Z,14.40
2019-03-25T11:28:14.355Z,14.50
2019-03-25T11:30:49.714Z,14.50
2019-03-25T11:33:18.966Z,14.60
2019-03-25T11:35:48.081Z,14.60
2019-03-25T11:38:17.369Z,14.60
2019-03-25T11:40:46.341Z,14.60
2019-03-25T11:43:15.613Z,14.60
2019-03-25T11:45:44.909Z,14.80
2019-03-25T11:48:14.026Z,14.90
2019-03-25T11:50:43.269Z,15.10
2019-03-25T11:53:12.485Z,15.20
2019-03-25T11:55:41.545Z,15.20
2019-03-25T11:58:10.684Z,15.10
2019-03-25T12:00:39.911Z,15.00
2019-03-25T12:03:09.213Z,15.00
2019-03-25T12:05:40.632Z,14.90
2019-03-25T12:08:09.292Z,14.80
2019-03-25T12:10:38.345Z,14.50
2019-03-25T12:13:07.710Z,14.40
2019-03-25T12:15:36.752Z,14.10
2019-03-25T12:18:06.015Z,13.80
2019-03-25T12:20:35.378Z,13.60
2019-03-25T12:23:04.649Z,13.40
2019-03-25T12:25:34.230Z,13.10
2019-03-25T12:28:03.562Z,12.90
2019-03-25T12:30:32.909Z,12.90
2019-03-25T12:33:04.280Z,13.00
2019-03-25T12:35:33.117Z,13.20
2019-03-25T12:38:02.355Z,13.60
2019-03-25T12:40:31.569Z,14.00
2019-03-25T12:43:00.818Z,14.30
2019-03-25T12:45:30.103Z,14.40
2019-03-25T12:47:59.434Z,14.40
2019-03-25T12:50:28.603Z,14.40
2019-03-25T12:52:57.781Z,14.20
2019-03-25T12:55:27.117Z,14.20
2019-03-25T12:57:56.370Z,14.10
2019-03-25T13:00:42.912Z,14.10
2019-03-25T13:03:12.116Z,14.10
2019-03-25T13:05:41.265Z,13.90
2019-03-25T13:08:10.648Z,13.60
2019-03-25T13:10:39.736Z,13.20
2019-03-25T13:13:09.303Z,12.90
2019-03-25T13:15:38.589Z,12.60
2019-03-25T13:18:07.935Z,12.40
2019-03-25T13:20:37.206Z,12.40
2019-03-25T13:23:06.314Z,12.40
2019-03-25T13:25:36.024Z,12.60
2019-03-25T13:28:05.315Z,12.90
2019-03-25T13:30:34.513Z,13.30
2019-03-25T13:33:03.611Z,13.30
2019-03-25T13:35:36.366Z,13.30
2019-03-25T13:38:05.759Z,13.20
2019-03-25T13:40:35.009Z,13.10
2019-03-25T13:43:04.198Z,12.80
2019-03-25T13:45:33.474Z,12.70
2019-03-25T13:48:02.639Z,12.50
2019-03-25T13:50:32.020Z,12.50
2019-03-25T13:53:01.116Z,12.60
2019-03-25T13:55:30.448Z,12.60
2019-03-25T13:57:59.732Z,12.60
2019-03-25T14:00:38.776Z,12.60
2019-03-25T14:03:08.109Z,12.50
2019-03-25T14:05:37.189Z,12.50
2019-03-25T14:08:06.483Z,12.30
2019-03-25T14:10:35.548Z,12.30
2019-03-25T14:13:04.759Z,12.20
2019-03-25T14:15:33.945Z,12.10
2019-03-25T14:18:03.089Z,11.90
2019-03-25T14:20:32.268Z,11.80
2019-03-25T14:23:01.281Z,11.60
2019-03-25T14:25:30.536Z,11.50
2019-03-25T14:27:59.672Z,11.50
2019-03-25T14:30:28.961Z,11.40
2019-03-25T14:32:58.217Z,11.50
2019-03-25T14:35:27.520Z,11.60
2019-03-25T14:37:56.665Z,11.50
2019-03-25T14:40:25.795Z,11.40
2019-03-25T14:42:55.187Z,11.40
2019-03-25T14:45:26.757Z,11.40
2019-03-25T14:47:55.309Z,11.40
2019-03-25T14:50:24.678Z,11.30
2019-03-25T14:52:53.752Z,11.30
2019-03-25T14:55:23.150Z,11.30
2019-03-25T14:57:52.292Z,11.30
2019-03-25T15:00:25.424Z,11.50
2019-03-25T15:02:52.220Z,11.50
2019-03-25T15:05:21.388Z,11.50
2019-03-25T15:07:50.464Z,11.60
2019-03-25T15:10:19.533Z,11.70
2019-03-25T15:12:48.716Z,11.80
2019-03-25T15:15:17.894Z,11.80
2019-03-25T15:17:47.004Z,11.80
2019-03-25T15:20:16.230Z,11.80
2019-03-25T15:22:45.416Z,11.70
2019-03-25T15:25:15.025Z,11.70
2019-03-25T15:27:44.177Z,11.60
2019-03-25T15:30:14.027Z,11.60
2019-03-25T15:32:43.181Z,11.60
2019-03-25T15:35:12.512Z,11.60
2019-03-25T15:37:41.682Z,11.70
2019-03-25T15:40:11.923Z,11.60
2019-03-25T15:42:41.287Z,11.70
2019-03-25T15:45:10.600Z,11.80
2019-03-25T15:47:40.250Z,11.80
2019-03-25T15:50:09.781Z,11.90
2019-03-25T15:52:39.233Z,12.00
2019-03-25T15:55:08.727Z,12.00
2019-03-25T15:57:39.757Z,12.10
2019-03-25T16:00:14.929Z,12.10
2019-03-25T16:02:44.033Z,12.20
2019-03-25T16:05:13.232Z,12.20
2019-03-25T16:07:43.964Z,12.20
2019-03-25T16:10:14.577Z,12.20
2019-03-25T16:12:43.931Z,12.20
2019-03-25T16:15:13.098Z,12.30
2019-03-25T16:17:43.304Z,12.30
2019-03-25T16:20:12.723Z,12.40
2019-03-25T16:22:41.929Z,12.40
2019-03-25T16:25:13.998Z,12.40
2019-03-25T16:27:43.081Z,12.40
2019-03-25T16:30:12.459Z,12.40
2019-03-25T16:32:41.797Z,12.40
2019-03-25T16:35:11.599Z,12.30
2019-03-25T16:37:40.805Z,12.30
2019-03-25T16:40:10.063Z,12.30
2019-03-25T16:42:40.200Z,12.30
2019-03-25T16:45:10.681Z,12.20
2019-03-25T16:47:39.843Z,12.20
2019-03-25T16:50:09.085Z,12.20
2019-03-25T16:52:38.212Z,12.20
2019-03-25T16:55:07.498Z,12.30
2019-03-25T16:57:36.760Z,12.20
2019-03-25T17:00:07.092Z,12.20
2019-03-25T17:02:36.144Z,12.20
2019-03-25T17:05:06.343Z,12.10
2019-03-25T17:07:35.660Z,12.10
2019-03-25T17:10:06.658Z,12.00
2019-03-25T17:12:39.399Z,12.00
2019-03-25T17:15:08.497Z,12.00
2019-03-25T17:17:37.928Z,11.90
2019-03-25T17:20:07.151Z,11.90
2019-03-25T17:22:36.360Z,11.80
2019-03-25T17:25:06.609Z,11.80
2019-03-25T17:27:35.981Z,11.80
2019-03-25T17:30:08.280Z,11.80
2019-03-25T17:32:37.562Z,11.70
2019-03-25T17:35:07.821Z,11.80
2019-03-25T17:37:36.933Z,11.70
2019-03-25T17:40:08.442Z,12.00
2019-03-25T17:42:37.486Z,11.70
2019-03-25T17:45:07.792Z,11.70
2019-03-25T17:47:37.072Z,11.60
2019-03-25T17:50:07.569Z,11.60
2019-03-25T17:52:36.726Z,11.60
2019-03-25T17:55:06.946Z,11.50
2019-03-25T17:57:36.201Z,11.60
2019-03-25T18:00:08.298Z,11.50
2019-03-25T18:02:37.477Z,11.40
2019-03-25T18:05:07.991Z,11.40
2019-03-25T18:07:37.192Z,11.40
2019-03-25T18:10:08.256Z,11.40
2019-03-25T18:12:39.216Z,11.40
2019-03-25T18:15:11.747Z,11.40
2019-03-25T18:17:40.809Z,11.40
2019-03-25T18:20:17.991Z,11.40
2019-03-25T18:22:40.333Z,11.40
2019-03-25T18:25:09.492Z,11.40
2019-03-25T18:27:38.744Z,11.40
2019-03-25T18:30:08.103Z,11.40
2019-03-25T18:32:37.300Z,11.40
2019-03-25T18:35:07.184Z,11.30
2019-03-25T18:37:36.593Z,11.30
2019-03-25T18:40:06.648Z,11.20
2019-03-25T18:42:35.886Z,11.20
2019-03-25T18:45:05.766Z,11.20
2019-03-25T18:47:35.137Z,11.20
2019-03-25T18:50:08.569Z,11.20
2019-03-25T18:52:37.743Z,11.10
2019-03-25T18:55:07.347Z,11.10
2019-03-25T18:57:36.517Z,11.10
2019-03-25T19:00:31.991Z,11.10
2019-03-25T19:03:01.325Z,11.10
2019-03-25T19:05:30.422Z,11.10
2019-03-25T19:08:01.466Z,11.10
2019-03-25T19:10:30.701Z,11.00
2019-03-25T19:13:00.012Z,11.00
2019-03-25T19:15:29.283Z,11.00
2019-03-25T19:17:58.578Z,11.00
2019-03-25T19:20:27.768Z,11.00
2019-03-25T19:22:56.946Z,11.00
2019-03-25T19:25:26.186Z,11.00
2019-03-25T19:27:55.351Z,11.00
2019-03-25T19:30:28.979Z,11.00
2019-03-25T19:32:58.154Z,10.90
2019-03-25T19:35:29.884Z,10.90
2019-03-25T19:37:58.229Z,10.90
2019-03-25T19:40:27.496Z,10.90
2019-03-25T19:43:01.253Z,10.80
2019-03-25T19:45:30.503Z,10.90
2019-03-25T19:47:59.889Z,10.80
2019-03-25T19:50:29.209Z,10.80
2019-03-25T19:52:58.815Z,10.80
2019-03-25T19:55:28.253Z,10.90
2019-03-25T19:57:57.851Z,10.80
2019-03-25T20:00:35.925Z,10.80
2019-03-25T20:03:05.688Z,10.90
2019-03-25T20:05:35.011Z,10.90
2019-03-25T20:08:04.241Z,11.00
2019-03-25T20:10:34.893Z,10.90
2019-03-25T20:13:04.221Z,10.90
2019-03-25T20:15:45.576Z,10.90
2019-03-25T20:18:04.393Z,10.90
2019-03-25T20:20:33.805Z,10.90
2019-03-25T20:23:03.077Z,10.90
2019-03-25T20:25:32.273Z,10.90
2019-03-25T20:28:03.460Z,10.90
2019-03-25T20:30:32.812Z,10.90
2019-03-25T20:33:01.933Z,10.90
2019-03-25T20:35:31.438Z,10.80
2019-03-25T20:38:00.859Z,10.80
2019-03-25T20:40:30.065Z,10.80
2019-03-25T20:42:59.635Z,10.70
2019-03-25T20:45:28.941Z,10.70
2019-03-25T20:47:58.233Z,10.60
2019-03-25T20:50:27.630Z,10.60
2019-03-25T20:52:56.794Z,10.60
2019-03-25T20:55:26.235Z,10.50
2019-03-25T20:57:55.610Z,10.50
2019-03-25T21:00:50.294Z,10.50
2019-03-25T21:03:18.638Z,10.50
2019-03-25T21:05:47.703Z,10.20
2019-03-25T21:08:16.995Z,10.40
2019-03-25T21:10:46.172Z,10.40
2019-03-25T21:13:15.479Z,10.40
2019-03-25T21:15:44.806Z,10.50
2019-03-25T21:18:14.039Z,10.40
2019-03-25T21:20:43.314Z,10.50
2019-03-25T21:23:12.643Z,10.50
2019-03-25T21:25:41.821Z,10.60
2019-03-25T21:28:10.981Z,10.50
2019-03-25T21:30:47.963Z,10.60
2019-03-25T21:33:11.085Z,10.60
2019-03-25T21:35:40.427Z,10.60
2019-03-25T21:38:09.518Z,10.50
2019-03-25T21:40:38.861Z,10.50
2019-03-25T21:43:08.362Z,10.50
2019-03-25T21:45:37.633Z,10.40
2019-03-25T21:48:06.895Z,10.40
2019-03-25T21:50:36.161Z,10.40
2019-03-25T21:53:05.204Z,10.50
2019-03-25T21:55:34.437Z,10.40
2019-03-25T21:58:03.668Z,10.50
2019-03-25T22:00:32.977Z,10.50
2019-03-25T22:03:11.461Z,10.50
2019-03-25T22:05:32.880Z,10.40
2019-03-25T22:08:02.004Z,10.40
2019-03-25T22:10:31.315Z,10.40
2019-03-25T22:13:00.489Z,10.40
2019-03-25T22:15:29.740Z,10.30
2019-03-25T22:17:58.744Z,10.40
2019-03-25T22:20:28.104Z,10.40
2019-03-25T22:22:57.373Z,10.40
2019-03-25T22:25:26.605Z,10.30
2019-03-25T22:27:55.924Z,10.30
2019-03-25T22:30:25.962Z,10.30
2019-03-25T22:32:55.241Z,10.30
2019-03-25T22:35:24.217Z,10.30
2019-03-25T22:37:53.360Z,10.20
2019-03-25T22:40:22.605Z,10.20
2019-03-25T22:42:51.926Z,10.20
2019-03-25T22:45:28.784Z,10.20
2019-03-25T22:47:58.074Z,10.20
2019-03-25T22:50:29.617Z,10.10
2019-03-25T22:52:58.885Z,10.10
2019-03-25T22:55:28.130Z,10.10
2019-03-25T22:57:57.445Z,10.10
2019-03-25T23:00:28.183Z,10.10
2019-03-25T23:02:57.276Z,10.10
2019-03-25T23:05:26.420Z,10.10
2019-03-25T23:07:55.700Z,10.10
2019-03-25T23:10:24.977Z,10.10
2019-03-25T23:12:54.281Z,10.10
2019-03-25T23:15:23.466Z,10.10
2019-03-25T23:17:52.669Z,10.10
2019-03-25T23:20:21.865Z,10.20
2019-03-25T23:22:51.128Z,10.20
2019-03-25T23:25:20.320Z,10.20
2019-03-25T23:27:49.636Z,10.10
2019-03-25T23:30:18.845Z,10.10
2019-03-25T23:32:48.138Z,10.10
2019-03-25T23:35:17.274Z,10.10
2019-03-25T23:37:46.483Z,10.10
2019-03-25T23:40:15.715Z,10.10
2019-03-25T23:42:45.105Z,10.10
2019-03-25T23:45:14.409Z,10.10
2019-03-25T23:47:43.748Z,10.10
2019-03-25T23:50:13.035Z,10.10
2019-03-25T23:52:42.217Z,10.10
2019-03-25T23:55:11.555Z,10.10
2019-03-25T23:57:40.748Z,10.10
